Time;durP1;ratioP1;P1;durP2;ratioP2;P2;SDS_P1;SDS_P2;PMS_P1;PMS_P2;Temp;Humidity;BMP_temperature;BMP_pressure;BME280_temperature;BME280_humidity;BME280_pressure;Samples;Min_cycle;Max_cycle;Signal;HPM_P1;HPM_P2
2022/07/13 00:00:26;;;;;;;12.95;6.28;;;;;;;22.42;59.34;101942.38;5136122;27;20027;-86
2022/07/13 00:02:53;;;;;;;7.17;6.13;;;;;;;22.37;59.50;101928.53;5117734;27;20023;-86
2022/07/13 00:05:19;;;;;;;10.75;5.88;;;;;;;22.33;59.18;101936.50;5117618;27;20168;-86
2022/07/13 00:07:44;;;;;;;13.73;5.97;;;;;;;22.34;59.30;101940.94;5117478;27;20046;-86
2022/07/13 00:10:11;;;;;;;13.43;6.10;;;;;;;22.33;59.61;101925.44;5117585;27;20031;-85
2022/07/13 00:12:38;;;;;;;12.93;6.22;;;;;;;22.25;60.06;101909.38;5136184;27;20027;-86
2022/07/13 00:15:04;;;;;;;11.47;5.63;;;;;;;22.23;60.08;101901.34;5117435;27;20153;-86
2022/07/13 00:17:29;;;;;;;13.95;5.22;;;;;;;22.21;59.46;101911.81;5083369;27;20035;-85
2022/07/13 00:19:55;;;;;;;8.50;6.00;;;;;;;22.20;58.71;101904.66;5117406;27;20028;-86
2022/07/13 00:22:20;;;;;;;8.97;5.90;;;;;;;22.23;58.77;101900.50;5117269;27;20039;-85
2022/07/13 00:24:45;;;;;;;9.13;5.63;;;;;;;22.24;58.49;101897.47;5117235;27;20062;-86
2022/07/13 00:27:11;;;;;;;7.90;5.63;;;;;;;22.22;58.28;101888.63;5117881;27;20074;-86
2022/07/13 00:29:36;;;;;;;6.33;5.73;;;;;;;22.23;57.33;101893.06;5133322;27;20084;-86
2022/07/13 00:32:02;;;;;;;6.43;5.30;;;;;;;22.24;57.39;101897.47;5083390;27;20482;-85
2022/07/13 00:34:27;;;;;;;7.10;5.43;;;;;;;22.27;56.68;101903.56;5116718;27;20065;-86
2022/07/13 00:36:53;;;;;;;6.73;5.20;;;;;;;22.27;56.52;101886.97;5100682;27;20027;-85
2022/07/13 00:39:18;;;;;;;6.83;4.90;;;;;;;22.28;56.21;101889.47;5083171;27;20034;-86
2022/07/13 00:41:45;;;;;;;9.50;5.37;;;;;;;22.28;55.94;101880.34;5116894;27;20034;-86
2022/07/13 00:44:11;;;;;;;7.75;5.20;;;;;;;22.27;56.12;101870.41;5100120;27;20114;-86
2022/07/13 00:46:38;;;;;;;8.20;5.28;;;;;;;22.26;55.95;101864.03;5083384;27;20161;-86
2022/07/13 00:49:04;;;;;;;7.95;4.88;;;;;;;22.25;56.52;101862.38;5099970;27;20048;-86
2022/07/13 00:51:30;;;;;;;7.25;5.03;;;;;;;22.24;55.79;101863.47;5117073;27;20031;-86
2022/07/13 00:53:56;;;;;;;6.97;5.20;;;;;;;22.25;55.22;101860.44;5134858;27;20023;-86
2022/07/13 00:56:23;;;;;;;10.13;4.90;;;;;;;22.28;55.23;101855.44;5116999;27;20031;-86
2022/07/13 00:58:49;;;;;;;7.47;5.00;;;;;;;22.29;55.23;101857.94;5099731;27;20041;-86
2022/07/13 01:01:15;;;;;;;7.30;4.43;;;;;;;22.28;55.34;101853.53;5116954;27;20035;-86
2022/07/13 01:03:40;;;;;;;10.23;4.80;;;;;;;22.29;54.78;101857.94;5134952;27;20118;-86
2022/07/13 01:06:07;;;;;;;5.73;4.83;;;;;;;22.30;55.15;101854.09;5134556;27;20027;-86
2022/07/13 01:08:34;;;;;;;6.53;4.88;;;;;;;22.31;54.83;101852.16;5116548;28;20074;-86
2022/07/13 01:11:00;;;;;;;6.47;4.85;;;;;;;22.31;54.64;101855.75;5135430;27;20084;-86
2022/07/13 01:13:26;;;;;;;5.97;4.60;;;;;;;22.31;54.73;101857.66;5134852;27;20088;-86
2022/07/13 01:15:52;;;;;;;7.07;4.35;;;;;;;22.34;54.07;101857.19;5134550;27;20027;-85
2022/07/13 01:18:18;;;;;;;9.32;5.10;;;;;;;22.31;54.13;101844.69;5099508;27;20027;-86
2022/07/13 01:20:44;;;;;;;6.57;4.40;;;;;;;22.31;53.78;101853.00;5100176;28;20038;-85
2022/07/13 01:23:11;;;;;;;10.07;4.40;;;;;;;22.32;53.48;101845.56;5099582;28;20031;-85
2022/07/13 01:25:36;;;;;;;12.38;4.95;;;;;;;22.34;53.34;101849.72;5099846;28;20117;-86
2022/07/13 01:28:02;;;;;;;6.63;4.60;;;;;;;22.33;54.18;101848.06;5117134;28;20063;-86
2022/07/13 01:30:27;;;;;;;11.07;4.43;;;;;;;22.32;53.78;101840.03;5116444;27;20042;-86
2022/07/13 01:32:53;;;;;;;8.48;4.20;;;;;;;22.31;52.84;101841.09;5134561;28;20031;-86
2022/07/13 01:35:21;;;;;;;8.87;4.40;;;;;;;22.30;53.32;101845.78;5082965;28;20038;-86
2022/07/13 01:37:47;;;;;;;5.85;4.22;;;;;;;22.31;53.01;101839.19;5135094;28;20024;-86
2022/07/13 01:40:14;;;;;;;10.20;4.18;;;;;;;22.29;53.34;101835.84;5099192;28;20042;-87
2022/07/13 01:42:48;;;;;;;12.53;4.37;;;;;;;22.29;53.07;101838.59;5102241;27;20105;-86
2022/07/13 01:45:15;;;;;;;8.30;4.50;;;;;;;22.27;53.28;101831.69;5120675;27;20122;-86
2022/07/13 01:47:42;;;;;;;7.32;4.50;;;;;;;22.23;53.09;101843.31;5138977;27;20118;-86
2022/07/13 01:50:10;;;;;;;8.38;4.85;;;;;;;22.22;53.50;101841.63;5138756;27;20047;-86
2022/07/13 01:52:36;;;;;;;5.55;4.13;;;;;;;22.20;53.32;101841.06;5120136;27;20096;-86
2022/07/13 01:55:06;;;;;;;8.40;3.90;;;;;;;22.20;53.13;101845.75;5103082;27;20039;-86
2022/07/13 01:57:32;;;;;;;9.07;4.20;;;;;;;22.15;53.22;101838.28;5137335;27;20031;-86
2022/07/13 02:00:18;;;;;;;5.20;3.80;;;;;;;22.15;53.42;101840.22;5120193;27;20032;-86
2022/07/13 02:02:44;;;;;;;6.55;4.10;;;;;;;22.11;53.42;101841.84;5137858;27;20027;-86
2022/07/13 02:05:10;;;;;;;7.07;4.00;;;;;;;22.07;53.94;101839.63;5086201;27;20126;-86
2022/07/13 02:07:37;;;;;;;8.43;3.63;;;;;;;22.05;53.62;101827.19;5120191;27;20054;-86
2022/07/13 02:10:07;;;;;;;5.30;3.47;;;;;;;22.03;53.61;101823.84;5120574;27;20041;-86
2022/07/13 02:12:33;;;;;;;5.88;3.80;;;;;;;22.01;54.11;101821.38;5102984;27;20126;-86
2022/07/13 02:14:58;;;;;;;4.50;3.57;;;;;;;21.99;53.87;101817.19;5137704;27;20114;-86
2022/07/13 02:17:24;;;;;;;7.67;3.70;;;;;;;21.96;54.02;101809.47;5119733;27;20106;-85
2022/07/13 02:19:49;;;;;;;7.30;4.07;;;;;;;21.94;53.92;101808.88;5085816;27;20111;-85
2022/07/13 02:22:14;;;;;;;4.40;3.70;;;;;;;21.96;54.05;101804.75;5102744;27;20039;-86
2022/07/13 02:24:40;;;;;;;5.67;3.40;;;;;;;21.95;54.36;101799.50;5102909;27;20374;-85
2022/07/13 02:27:05;;;;;;;4.93;3.50;;;;;;;21.94;54.26;101803.34;5085554;27;20050;-86
2022/07/13 02:29:31;;;;;;;5.13;3.93;;;;;;;21.94;54.50;101814.41;5102368;27;20030;-86
2022/07/13 02:31:56;;;;;;;6.97;3.70;;;;;;;21.90;54.32;101803.06;5085452;27;20499;-86
2022/07/13 02:34:26;;;;;;;7.10;3.77;;;;;;;21.90;54.34;101803.06;5138016;27;20031;-86
2022/07/13 02:36:52;;;;;;;5.90;3.63;;;;;;;21.89;55.11;101798.63;5119557;27;20026;-86
2022/07/13 02:39:18;;;;;;;5.50;3.90;;;;;;;21.87;54.79;101793.38;5102605;27;20043;-85
2022/07/13 02:41:44;;;;;;;6.88;4.03;;;;;;;21.85;54.85;101798.34;5119766;27;20035;-86
2022/07/13 02:44:09;;;;;;;4.27;3.83;;;;;;;21.85;55.37;101797.50;5084909;27;20118;-86
2022/07/13 02:46:34;;;;;;;5.10;3.57;;;;;;;21.85;55.30;101794.75;5119694;27;20060;-86
2022/07/13 02:49:00;;;;;;;5.10;3.97;;;;;;;21.84;55.26;101777.34;5102278;27;20051;-86
2022/07/13 02:51:25;;;;;;;4.72;3.78;;;;;;;21.82;55.85;101770.41;5119324;27;20490;-86
2022/07/13 02:53:50;;;;;;;7.23;3.80;;;;;;;21.80;56.08;101778.16;5135378;27;20030;-85
2022/07/13 02:56:16;;;;;;;5.43;4.17;;;;;;;21.80;55.83;101789.22;5101962;27;20110;-86
2022/07/13 02:58:42;;;;;;;7.18;3.85;;;;;;;21.79;55.75;101788.38;5085147;27;20027;-86
2022/07/13 03:01:07;;;;;;;6.80;3.97;;;;;;;21.80;55.96;101791.97;5101912;27;20031;-86
2022/07/13 03:03:33;;;;;;;5.43;3.57;;;;;;;21.80;56.07;101789.22;5136224;27;20367;-86
2022/07/13 03:05:58;;;;;;;8.10;4.10;;;;;;;21.77;55.98;101775.94;5135975;27;20035;-86
2022/07/13 03:08:23;;;;;;;8.37;3.90;;;;;;;21.77;55.59;101786.97;5118802;27;20101;-86
2022/07/13 03:10:49;;;;;;;5.85;4.18;;;;;;;21.73;55.77;101795.81;5137011;27;20027;-85
2022/07/13 03:13:14;;;;;;;6.33;3.50;;;;;;;21.72;56.19;101787.78;5101470;27;20467;-86
2022/07/13 03:15:40;;;;;;;4.27;3.60;;;;;;;21.72;55.81;101793.31;5101686;27;20032;-85
2022/07/13 03:18:07;;;;;;;5.97;3.40;;;;;;;21.69;56.30;101785.56;5101548;27;20028;-85
2022/07/13 03:20:34;;;;;;;10.45;3.72;;;;;;;21.68;55.94;101787.47;5135950;27;20054;-86
2022/07/13 03:22:59;;;;;;;6.82;3.85;;;;;;;21.68;56.28;101786.66;5101602;27;20085;-85
2022/07/13 03:25:25;;;;;;;4.43;3.30;;;;;;;21.68;56.50;101792.19;5101058;27;20043;-85
2022/07/13 03:27:50;;;;;;;6.32;3.33;;;;;;;21.66;56.08;101778.66;5135875;27;20106;-85
2022/07/13 03:30:15;;;;;;;9.40;3.90;;;;;;;21.64;56.52;101780.84;5136048;27;20031;-85
2022/07/13 03:32:41;;;;;;;7.17;3.70;;;;;;;21.64;56.53;101777.25;5135323;27;20035;-86
2022/07/13 03:35:07;;;;;;;3.43;3.13;;;;;;;21.64;56.63;101774.47;5135691;27;20467;-85
2022/07/13 03:37:32;;;;;;;10.30;3.95;;;;;;;21.62;56.45;101777.50;5118109;27;20062;-86
2022/07/13 03:39:58;;;;;;;5.93;3.57;;;;;;;21.61;57.04;101778.59;5118199;27;20035;-85
2022/07/13 03:42:25;;;;;;;5.63;3.80;;;;;;;21.61;57.11;101770.31;5101390;27;20069;-85
2022/07/13 03:44:51;;;;;;;8.48;4.18;;;;;;;21.60;56.81;101776.97;5118156;27;20106;-86
2022/07/13 03:47:16;;;;;;;5.73;3.70;;;;;;;21.60;57.14;101774.19;5118152;27;20085;-85
2022/07/13 03:49:42;;;;;;;5.03;3.72;;;;;;;21.58;57.32;101770.03;5117795;27;20051;-86
2022/07/13 03:52:07;;;;;;;5.47;4.33;;;;;;;21.59;57.36;101774.47;5136275;27;20039;-85
2022/07/13 03:54:32;;;;;;;13.23;3.93;;;;;;;21.57;57.42;101771.97;5117821;27;20474;-86
2022/07/13 03:56:58;;;;;;;9.67;3.97;;;;;;;21.57;57.46;101773.88;5117664;27;20035;-86
2022/07/13 03:59:23;;;;;;;11.43;4.10;;;;;;;21.57;57.35;101769.22;5135810;27;20110;-85
2022/07/13 04:01:49;;;;;;;7.13;4.28;;;;;;;21.56;57.24;101770.31;5117703;27;20455;-85
2022/07/13 04:04:14;;;;;;;11.23;4.30;;;;;;;21.53;57.48;101768.91;5134564;27;20042;-86
2022/07/13 04:06:39;;;;;;;8.00;4.23;;;;;;;21.53;57.56;101773.59;5134706;27;20035;-85
2022/07/13 04:09:05;;;;;;;11.27;3.90;;;;;;;21.54;57.67;101772.50;5083954;27;20059;-86
2022/07/13 04:11:31;;;;;;;12.80;4.38;;;;;;;21.54;57.90;101770.56;5117264;27;20043;-86
2022/07/13 04:13:57;;;;;;;8.70;3.73;;;;;;;21.53;57.65;101774.41;5117493;27;20080;-86
2022/07/13 04:16:22;;;;;;;10.70;3.70;;;;;;;21.56;57.87;101773.06;5117222;27;20110;-86
2022/07/13 04:18:47;;;;;;;6.27;4.10;;;;;;;21.54;57.55;101767.81;5117288;27;20027;-85
2022/07/13 04:21:14;;;;;;;6.63;4.23;;;;;;;21.52;57.95;101764.47;5134285;27;20089;-86
2022/07/13 04:23:39;;;;;;;12.02;4.25;;;;;;;21.52;57.70;101760.88;5100358;27;20027;-85
2022/07/13 04:26:05;;;;;;;6.03;3.90;;;;;;;21.52;57.33;101760.88;5117335;27;20475;-86
2022/07/13 04:28:30;;;;;;;6.20;3.90;;;;;;;21.54;57.56;101759.53;5117788;27;20390;-86
2022/07/13 04:30:56;;;;;;;10.17;4.20;;;;;;;21.57;57.88;101752.66;5135085;27;20034;-85
2022/07/13 04:33:21;;;;;;;7.13;3.77;;;;;;;21.61;57.67;101751.00;5134457;27;20280;-86
2022/07/13 04:35:47;;;;;;;8.63;3.60;;;;;;;21.62;57.43;101747.13;5099768;27;20375;-86
2022/07/13 04:38:13;;;;;;;9.97;3.97;;;;;;;21.66;57.20;101745.50;5099977;27;20045;-86
2022/07/13 04:40:39;;;;;;;7.63;4.10;;;;;;;21.67;56.93;101752.69;5100164;27;20087;-86
2022/07/13 04:43:04;;;;;;;6.72;3.42;;;;;;;21.69;57.40;101755.19;5151625;27;20106;-85
2022/07/13 04:45:30;;;;;;;11.40;3.70;;;;;;;21.73;57.51;101756.28;5117086;27;20492;-86
2022/07/13 04:47:56;;;;;;;7.85;3.90;;;;;;;21.75;57.29;101756.88;5100018;27;20090;-85
2022/07/13 04:50:21;;;;;;;6.23;3.70;;;;;;;21.73;57.58;101754.38;5116638;27;20078;-86
2022/07/13 04:52:47;;;;;;;7.73;4.13;;;;;;;21.72;57.65;101752.72;5116781;27;20067;-85
2022/07/13 04:55:13;;;;;;;9.02;3.83;;;;;;;21.71;57.37;101753.81;5116953;27;20378;-85
2022/07/13 04:57:38;;;;;;;5.80;3.67;;;;;;;21.76;57.67;101746.66;5135554;27;20023;-86
2022/07/13 05:00:06;;;;;;;10.40;3.65;;;;;;;21.82;57.29;101748.31;5116835;27;20023;-86
2022/07/13 05:02:32;;;;;;;6.88;3.70;;;;;;;21.88;56.52;101745.34;5135223;27;20151;-86
2022/07/13 05:04:57;;;;;;;7.83;3.90;;;;;;;21.92;56.11;101750.31;5135539;27;20044;-88
2022/07/13 05:07:22;;;;;;;7.23;3.80;;;;;;;21.98;56.00;101747.31;5116760;27;20379;-86
2022/07/13 05:09:48;;;;;;;7.17;3.40;;;;;;;22.06;55.41;101744.00;5134607;27;20035;-86
2022/07/13 05:12:13;;;;;;;6.55;3.40;;;;;;;22.13;55.37;101749.28;5117490;27;20039;-86
2022/07/13 05:14:39;;;;;;;6.47;3.60;;;;;;;22.24;55.18;101748.19;5116423;27;20058;-86
2022/07/13 05:17:04;;;;;;;12.47;3.20;;;;;;;22.35;54.60;101740.81;5133356;27;20063;-86
2022/07/13 05:19:29;;;;;;;5.33;3.00;;;;;;;22.49;53.87;101743.03;5116355;28;20076;-87
2022/07/13 05:21:55;;;;;;;5.13;3.10;;;;;;;22.58;53.91;101744.16;5082521;28;20031;-85
2022/07/13 05:24:20;;;;;;;9.20;3.42;;;;;;;22.63;53.60;101743.31;5099238;28;20027;-87
2022/07/13 05:26:45;;;;;;;9.60;3.23;;;;;;;22.58;53.40;101742.22;5116383;28;20467;-89
2022/07/13 05:29:11;;;;;;;7.70;3.47;;;;;;;22.57;53.31;101748.00;5083214;28;20027;-89
2022/07/13 05:31:36;;;;;;;7.40;3.03;;;;;;;22.53;53.73;101744.13;5099167;28;20027;-88
2022/07/13 05:34:02;;;;;;;8.30;3.90;;;;;;;22.52;53.82;101742.50;5133248;28;20083;-87
2022/07/13 05:36:27;;;;;;;5.60;3.40;;;;;;;22.51;53.62;101738.88;5115858;28;20042;-87
2022/07/13 05:38:53;;;;;;;6.67;3.30;;;;;;;22.55;53.24;101756.59;5115902;28;20026;-85
2022/07/13 05:41:18;;;;;;;3.87;3.40;;;;;;;22.58;53.02;101749.69;5116291;28;20024;-84
2022/07/13 05:43:44;;;;;;;8.43;3.22;;;;;;;22.65;52.73;101746.63;5116559;28;20462;-84
2022/07/13 05:46:09;;;;;;;6.00;3.30;;;;;;;22.69;52.88;101753.28;5116145;28;20024;-83
2022/07/13 05:48:35;;;;;;;5.30;3.40;;;;;;;22.72;52.54;101764.63;5082184;28;20035;-83
2022/07/13 05:51:01;;;;;;;4.82;3.30;;;;;;;22.77;52.36;101761.03;5116053;28;20083;-84
2022/07/13 05:53:26;;;;;;;6.53;3.00;;;;;;;22.87;52.49;101768.50;5099011;28;20111;-84
2022/07/13 05:55:52;;;;;;;5.65;3.03;;;;;;;22.94;52.51;101769.91;5116366;28;20027;-85
2022/07/13 05:58:17;;;;;;;6.90;3.03;;;;;;;23.03;51.95;101767.41;5098505;28;20035;-84
2022/07/13 06:00:43;;;;;;;6.10;2.83;;;;;;;23.01;51.59;101760.50;5134336;28;20028;-85
2022/07/13 06:03:08;;;;;;;8.17;3.20;;;;;;;23.01;51.67;101774.31;5150030;27;20031;-84
2022/07/13 06:05:34;;;;;;;6.68;2.90;;;;;;;23.03;52.34;101772.09;5098818;28;20114;-84
2022/07/13 06:07:59;;;;;;;6.40;3.00;;;;;;;23.08;52.38;101772.13;5099581;28;20032;-85
2022/07/13 06:10:24;;;;;;;6.17;3.23;;;;;;;23.09;52.24;101771.84;5133813;28;20027;-84
2022/07/13 06:12:50;;;;;;;10.93;3.33;;;;;;;23.17;52.30;101762.16;5133609;28;20061;-85
2022/07/13 06:15:15;;;;;;;7.50;3.20;;;;;;;23.25;52.50;101763.53;5115416;28;20046;-85
2022/07/13 06:17:41;;;;;;;5.53;3.60;;;;;;;23.35;52.32;101771.00;5115698;28;20368;-85
2022/07/13 06:20:07;;;;;;;5.63;3.30;;;;;;;23.41;52.23;101767.94;5115536;28;20035;-85
2022/07/13 06:22:32;;;;;;;4.70;3.10;;;;;;;23.52;51.90;101771.53;5132470;28;20475;-85
2022/07/13 06:24:57;;;;;;;7.90;3.53;;;;;;;23.66;51.87;101763.44;5115372;28;20113;-85
2022/07/13 06:27:23;;;;;;;8.83;4.10;;;;;;;23.82;51.27;101773.34;5116340;27;20481;-83
2022/07/13 06:29:48;;;;;;;5.73;3.20;;;;;;;23.92;51.15;101764.22;5119154;27;20459;-84
2022/07/13 06:32:14;;;;;;;8.25;3.58;;;;;;;24.01;51.18;101766.41;5118962;27;20019;-84
2022/07/13 06:34:39;;;;;;;12.87;3.60;;;;;;;23.98;50.85;101765.84;5085802;27;20074;-85
2022/07/13 06:37:06;;;;;;;9.73;3.60;;;;;;;23.94;51.06;101769.47;5136157;27;20122;-84
2022/07/13 06:39:31;;;;;;;9.02;3.33;;;;;;;23.97;51.31;101764.19;5136480;27;20023;-84
2022/07/13 06:41:56;;;;;;;9.27;3.50;;;;;;;24.05;51.14;101760.00;5136204;27;20062;-84
2022/07/13 06:44:22;;;;;;;6.43;3.40;;;;;;;24.07;50.68;101757.78;5135820;27;20513;-84
2022/07/13 06:46:47;;;;;;;10.10;3.73;;;;;;;24.04;50.96;101761.09;5085657;27;20035;-84
2022/07/13 06:49:13;;;;;;;6.33;3.30;;;;;;;24.01;50.76;101758.91;5137357;27;20364;-84
2022/07/13 06:51:38;;;;;;;11.63;3.40;;;;;;;24.13;50.80;101756.63;5119550;27;20055;-84
2022/07/13 06:54:03;;;;;;;5.23;3.00;;;;;;;24.33;50.90;101755.69;5118589;27;20463;-84
2022/07/13 06:56:29;;;;;;;10.20;3.50;;;;;;;24.50;50.59;101755.28;5119389;27;20027;-85
2022/07/13 06:58:54;;;;;;;12.80;3.83;;;;;;;24.51;50.39;101750.59;5118800;27;20054;-84
2022/07/13 07:01:20;;;;;;;6.50;3.33;;;;;;;24.48;50.99;101754.75;5135821;27;20434;-85
2022/07/13 07:03:45;;;;;;;5.17;3.90;;;;;;;24.41;51.25;101756.19;5118805;27;20042;-85
2022/07/13 07:06:11;;;;;;;6.20;4.70;;;;;;;24.26;50.75;101757.94;5137009;27;20471;-84
2022/07/13 07:08:36;;;;;;;7.27;3.93;;;;;;;24.24;51.41;101764.88;5102104;27;20236;-84
2022/07/13 07:11:01;;;;;;;7.43;4.28;;;;;;;24.35;51.76;101769.25;5135636;27;20031;-84
2022/07/13 07:13:27;;;;;;;12.13;4.50;;;;;;;24.45;51.97;101771.16;5118644;27;20031;-85
2022/07/13 07:15:52;;;;;;;12.17;4.90;;;;;;;24.41;51.73;101770.06;5101481;27;20473;-84
2022/07/13 07:18:21;;;;;;;9.82;4.68;;;;;;;24.25;52.51;101769.31;5136411;27;20027;-85
2022/07/13 07:20:47;;;;;;;8.00;4.10;;;;;;;24.35;52.72;101772.03;5153137;27;20023;-84
2022/07/13 07:23:12;;;;;;;7.18;4.57;;;;;;;24.63;52.04;101762.16;5136706;27;20527;-85
2022/07/13 07:25:38;;;;;;;7.03;5.17;;;;;;;24.89;51.25;101763.91;5135487;27;20458;-84
2022/07/13 07:28:04;;;;;;;14.90;5.87;;;;;;;24.94;50.90;101772.22;5101217;27;20035;-84
2022/07/13 07:30:30;;;;;;;8.43;4.82;;;;;;;25.08;51.31;101762.06;5085167;27;20485;-84
2022/07/13 07:32:56;;;;;;;10.10;5.63;;;;;;;25.09;50.46;101754.59;5118030;27;20031;-85
2022/07/13 07:35:22;;;;;;;14.48;5.97;;;;;;;25.14;51.41;101758.16;5135344;27;20031;-85
2022/07/13 07:37:47;;;;;;;7.60;5.40;;;;;;;25.20;50.73;101756.13;5101309;27;20030;-85
2022/07/13 07:40:12;;;;;;;11.63;5.60;;;;;;;25.06;51.82;101758.78;5117551;27;20042;-84
2022/07/13 07:42:38;;;;;;;9.67;5.43;;;;;;;25.11;51.56;101760.66;5101026;27;20034;-84
2022/07/13 07:45:04;;;;;;;11.38;5.93;;;;;;;25.15;51.62;101756.19;5136294;27;20440;-84
2022/07/13 07:47:30;;;;;;;8.20;5.32;;;;;;;25.21;52.17;101747.50;5136603;27;20035;-84
2022/07/13 07:49:55;;;;;;;9.27;6.10;;;;;;;25.19;51.82;101755.31;5135915;27;20119;-85
2022/07/13 07:52:21;;;;;;;13.77;6.23;;;;;;;25.25;51.89;101753.31;5152260;27;20083;-84
2022/07/13 07:54:49;;;;;;;8.50;5.60;;;;;;;25.31;52.35;101757.72;5100968;27;20042;-84
2022/07/13 07:57:15;;;;;;;9.90;6.00;;;;;;;25.61;52.24;101750.16;5117429;27;20057;-85
2022/07/13 07:59:41;;;;;;;16.73;6.13;;;;;;;25.54;51.54;101750.53;5117942;27;20024;-85
2022/07/13 08:02:08;;;;;;;12.83;5.97;;;;;;;25.51;52.44;101750.28;5135913;27;20027;-84
2022/07/13 08:04:33;;;;;;;13.43;6.30;;;;;;;25.56;51.87;101758.56;5136054;27;20276;-84
2022/07/13 08:06:59;;;;;;;9.55;6.30;;;;;;;25.82;51.57;101755.47;5117760;27;20041;-84
2022/07/13 08:09:25;;;;;;;13.07;6.18;;;;;;;25.99;51.05;101764.19;5117510;27;20035;-85
2022/07/13 08:11:50;;;;;;;12.37;5.80;;;;;;;26.14;51.64;101760.38;5117374;27;20038;-85
2022/07/13 08:14:16;;;;;;;10.70;6.07;;;;;;;26.11;51.14;101757.38;5117369;27;20043;-84
2022/07/13 08:16:41;;;;;;;11.37;6.07;;;;;;;26.07;51.47;101769.09;5117034;27;20062;-84
2022/07/13 08:19:06;;;;;;;9.17;6.23;;;;;;;26.12;51.33;101759.84;5135619;27;20031;-85
2022/07/13 08:21:32;;;;;;;13.90;6.27;;;;;;;26.29;51.46;101767.66;5117336;27;20375;-85
2022/07/13 08:23:57;;;;;;;10.90;6.40;;;;;;;26.43;50.53;101757.44;5100351;27;20061;-84
2022/07/13 08:26:27;;;;;;;9.43;5.50;;;;;;;26.68;51.04;101760.16;5135968;27;20455;-85
2022/07/13 08:28:54;;;;;;;10.52;6.00;;;;;;;26.85;49.82;101773.53;5134195;27;20102;-85
2022/07/13 08:31:22;;;;;;;9.38;6.20;;;;;;;26.82;49.72;101771.38;5117128;27;20027;-85
2022/07/13 08:39:17;;;;;;;9.47;5.53;;;;;;;26.84;49.97;101771.88;5105508;27;20069;-85
2022/07/13 08:41:43;;;;;;;8.93;5.22;;;;;;;26.87;50.66;101774.03;5116918;27;20118;-85
2022/07/13 08:44:08;;;;;;;13.35;5.50;;;;;;;26.98;50.96;101775.53;5116442;27;20117;-85
2022/07/13 08:46:34;;;;;;;10.93;5.30;;;;;;;27.18;49.70;101763.22;5117172;27;20034;-85
2022/07/13 08:49:00;;;;;;;9.47;5.17;;;;;;;27.78;49.23;101772.69;5133441;27;20054;-85
2022/07/13 08:51:26;;;;;;;9.50;5.22;;;;;;;27.90;46.82;101769.38;5098982;27;20035;-85
2022/07/13 08:53:52;;;;;;;7.93;5.20;;;;;;;27.90;47.41;101766.59;5116804;27;20383;-84
2022/07/13 08:56:18;;;;;;;7.65;4.68;;;;;;;28.08;48.02;101767.63;5099038;27;20173;-85
2022/07/13 08:58:44;;;;;;;6.73;4.53;;;;;;;28.14;46.49;101761.63;5116230;27;20491;-84
2022/07/13 09:01:10;;;;;;;6.70;4.70;;;;;;;28.12;46.26;101777.00;5099570;27;20028;-85
2022/07/13 09:03:36;;;;;;;8.73;4.78;;;;;;;28.22;47.06;101775.97;5135049;27;20042;-85
2022/07/13 09:06:03;;;;;;;9.27;4.68;;;;;;;28.00;46.62;101774.75;5135150;27;20035;-85
2022/07/13 09:08:29;;;;;;;11.20;4.70;;;;;;;27.95;46.65;101777.66;5134638;27;20035;-85
2022/07/13 09:10:57;;;;;;;10.52;5.10;;;;;;;28.07;46.56;101786.31;5116048;27;20054;-85
2022/07/13 09:13:40;;;;;;;11.93;5.03;;;;;;;28.08;46.24;101781.56;5116426;27;20062;-84
2022/07/13 09:16:16;;;;;;;7.97;4.63;;;;;;;28.05;46.72;101776.63;5135222;27;20069;-85
2022/07/13 09:18:45;;;;;;;7.07;4.13;;;;;;;28.14;46.21;101769.16;5135000;27;20065;-85
2022/07/13 09:21:10;;;;;;;8.60;4.70;;;;;;;28.14;46.26;101777.50;5116931;27;20099;-87
2022/07/13 09:23:36;;;;;;;10.43;4.50;;;;;;;27.90;46.25;101794.47;5116470;28;20462;-87
2022/07/13 09:26:01;;;;;;;8.07;4.67;;;;;;;27.61;47.14;101782.50;5100212;28;20027;-87
2022/07/13 09:28:27;;;;;;;7.70;4.40;;;;;;;27.60;47.04;101785.59;5116553;28;20086;-86
2022/07/13 09:31:00;;;;;;;10.13;4.78;;;;;;;27.56;47.48;101779.78;5134654;28;20042;-87
2022/07/13 09:33:36;;;;;;;11.80;4.63;;;;;;;27.59;47.09;101786.72;5099606;28;20041;-87
2022/07/13 09:36:13;;;;;;;7.63;4.38;;;;;;;27.63;46.83;101801.69;5099381;28;20142;-88
2022/07/13 09:38:46;;;;;;;6.72;4.55;;;;;;;27.58;47.40;101797.06;5098963;28;20037;-87
2022/07/13 09:41:21;;;;;;;8.10;4.97;;;;;;;27.72;46.34;101799.84;5134608;28;20031;-87
2022/07/13 09:46:56;;;;;;;12.37;4.20;;;;;;;27.97;44.61;101770.63;5134992;28;20050;-88
2022/07/13 09:49:42;;;;;;;5.25;3.72;;;;;;;28.40;44.74;101774.16;5134315;28;20092;-88
2022/07/13 09:52:12;;;;;;;4.70;3.90;;;;;;;28.39;43.88;101778.94;5116508;28;20035;-87
2022/07/13 09:54:43;;;;;;;8.52;3.90;;;;;;;28.21;44.82;101783.50;5115946;28;20031;-88
2022/07/13 09:57:12;;;;;;;8.30;3.95;;;;;;;28.16;44.35;101784.44;5134161;28;20027;-88
2022/07/13 09:59:40;;;;;;;10.17;4.50;;;;;;;28.35;44.41;101789.88;5099722;28;20031;-88
2022/07/13 10:02:07;;;;;;;8.55;4.13;;;;;;;28.46;42.69;101796.03;5116288;27;20085;-88
2022/07/13 10:04:32;;;;;;;7.93;3.90;;;;;;;28.44;42.43;101789.16;5138524;27;20023;-88
2022/07/13 10:06:59;;;;;;;4.87;3.17;;;;;;;28.59;41.79;101799.13;5102778;27;20039;-90
2022/07/13 10:09:28;;;;;;;4.72;3.42;;;;;;;28.86;40.47;101787.88;5103276;27;20608;-88
2022/07/13 10:11:54;;;;;;;11.00;3.22;;;;;;;28.90;40.84;101790.03;5120289;27;20024;-88
2022/07/13 10:14:19;;;;;;;7.97;3.05;;;;;;;28.60;40.75;101796.03;5137639;27;20037;-88
2022/07/13 10:16:46;;;;;;;8.70;3.07;;;;;;;28.66;41.10;101792.00;5102345;27;20476;-87
2022/07/13 10:19:12;;;;;;;5.75;3.00;;;;;;;28.82;41.47;101797.19;5119579;27;20027;-87
2022/07/13 10:22:05;;;;;;;5.32;3.30;;;;;;;28.68;40.94;101809.22;5102690;27;20375;-87
2022/07/13 10:24:30;;;;;;;6.13;3.35;;;;;;;28.60;40.76;101801.63;5137628;27;20111;-87
2022/07/13 10:27:19;;;;;;;5.13;3.30;;;;;;;28.55;42.03;101804.50;5120155;27;20027;-87
2022/07/13 10:30:28;;;;;;;5.13;3.30;;;;;;;28.52;41.45;101802.34;5119938;27;20019;-87
2022/07/13 10:32:53;;;;;;;3.97;3.10;;;;;;;28.75;40.49;101802.41;5136941;27;20028;-87
2022/07/13 10:35:20;;;;;;;4.20;3.10;;;;;;;28.98;40.62;101797.63;5137720;27;20023;-87
2022/07/13 10:38:04;;;;;;;12.10;3.70;;;;;;;28.91;40.84;101814.00;5137223;27;20022;-87
2022/07/13 10:40:34;;;;;;;6.60;3.28;;;;;;;28.80;40.21;101814.25;5119676;27;20509;-87
2022/07/13 10:43:05;;;;;;;4.63;3.00;;;;;;;28.65;40.30;101812.66;5120037;27;20047;-87
2022/07/13 10:45:38;;;;;;;6.88;3.50;;;;;;;28.66;40.76;101805.94;5119032;27;20037;-87
2022/07/13 10:48:22;;;;;;;6.22;3.53;;;;;;;28.75;40.38;101806.00;5137526;27;20030;-87
2022/07/13 10:50:52;;;;;;;6.78;2.95;;;;;;;29.13;39.67;101816.81;5118547;27;20531;-86
2022/07/13 10:53:19;;;;;;;5.30;3.50;;;;;;;29.38;39.29;101817.28;5119405;27;20446;-88
2022/07/13 10:55:48;;;;;;;3.27;2.80;;;;;;;29.80;38.40;101815.03;5085653;27;20031;-87
2022/07/13 10:58:32;;;;;;;5.72;2.97;;;;;;;30.61;38.25;101813.75;5118661;27;20026;-88
2022/07/13 11:01:00;;;;;;;5.75;3.28;;;;;;;30.34;37.62;101814.88;5137210;27;20083;-87
2022/07/13 11:03:37;;;;;;;7.70;3.45;;;;;;;29.95;38.38;101810.19;5119152;27;20063;-87
2022/07/13 11:06:13;;;;;;;7.20;3.70;;;;;;;29.44;39.39;101813.25;5119100;27;20084;-87
2022/07/13 11:08:39;;;;;;;9.03;3.23;;;;;;;28.98;40.64;101823.63;5118833;27;20473;-87
2022/07/13 11:11:13;;;;;;;4.90;3.50;;;;;;;29.05;41.49;101817.56;5102406;27;20023;-86
2022/07/13 11:13:39;;;;;;;8.75;3.45;;;;;;;29.66;40.51;101819.91;5102041;28;20126;-87
2022/07/13 11:16:06;;;;;;;5.15;2.92;;;;;;;29.66;38.68;101825.50;5118332;27;20107;-86
2022/07/13 11:18:36;;;;;;;4.82;3.20;;;;;;;29.85;39.08;101814.09;5118340;27;20160;-88
2022/07/13 11:21:10;;;;;;;4.30;3.00;;;;;;;30.30;38.45;101818.66;5136811;27;20019;-87
2022/07/13 11:26:48;;;;;;;5.70;3.40;;;;;;;32.03;36.07;101815.88;5137059;27;20041;-87
2022/07/13 11:29:35;;;;;;;5.20;3.50;;;;;;;33.75;33.23;101817.81;5118145;27;20113;-87
2022/07/13 11:32:02;;;;;;;3.83;3.22;;;;;;;34.00;30.95;101800.91;5117735;27;20046;-87
2022/07/13 11:34:28;;;;;;;4.23;3.30;;;;;;;34.53;29.61;101824.28;5118389;27;20035;-87